createdAt,value
2017-11-08T00:00:50.987Z,63.50
2017-11-08T00:03:17.122Z,63.00
2017-11-08T00:05:43.206Z,63.53
2017-11-08T00:08:09.334Z,57.27
2017-11-08T00:10:35.426Z,64.90
2017-11-08T00:13:01.523Z,60.03
2017-11-08T00:15:27.635Z,58.07
2017-11-08T00:17:53.705Z,56.37
2017-11-08T00:20:19.795Z,67.07
2017-11-08T00:22:45.851Z,65.93
2017-11-08T00:25:12.251Z,54.87
2017-11-08T00:27:38.394Z,58.93
2017-11-08T00:30:04.616Z,56.83
2017-11-08T00:32:30.742Z,54.53
2017-11-08T00:34:56.838Z,51.03
2017-11-08T00:37:22.921Z,58.87
2017-11-08T00:39:49.042Z,58.80
2017-11-08T00:42:15.162Z,55.83
2017-11-08T00:44:41.226Z,56.43
2017-11-08T00:47:07.385Z,61.83
2017-11-08T00:49:34.332Z,59.00
2017-11-08T00:52:00.406Z,64.47
2017-11-08T00:54:26.913Z,65.23
2017-11-08T00:56:55.966Z,58.13
2017-11-08T00:59:22.070Z,64.50
2017-11-08T01:01:48.167Z,61.90
2017-11-08T01:04:14.246Z,60.07
2017-11-08T01:06:40.206Z,62.90
2017-11-08T01:09:06.450Z,68.97
2017-11-08T01:11:32.586Z,66.87
2017-11-08T01:13:58.758Z,61.93
2017-11-08T01:16:24.842Z,67.97
2017-11-08T01:18:50.987Z,62.63
2017-11-08T01:21:17.097Z,60.03
2017-11-08T01:23:43.186Z,62.67
2017-11-08T01:26:09.323Z,57.47
2017-11-08T01:28:35.479Z,59.20
2017-11-08T01:31:01.558Z,67.27
2017-11-08T01:33:27.654Z,59.93
2017-11-08T01:35:53.751Z,63.30
2017-11-08T01:38:19.801Z,62.07
2017-11-08T01:40:48.043Z,55.20
2017-11-08T01:43:14.113Z,58.50
2017-11-08T01:45:41.119Z,59.40
2017-11-08T01:48:08.435Z,65.20
2017-11-08T01:50:34.530Z,58.30
2017-11-08T01:53:00.645Z,57.67
2017-11-08T01:55:26.720Z,60.60
2017-11-08T01:57:52.773Z,52.27
2017-11-08T02:00:18.799Z,67.30
2017-11-08T02:02:44.894Z,68.80
2017-11-08T02:05:11.022Z,59.87
2017-11-08T02:07:37.163Z,57.70
2017-11-08T02:10:03.339Z,58.23
2017-11-08T02:12:29.460Z,58.83
2017-11-08T02:14:55.562Z,58.93
2017-11-08T02:17:21.663Z,61.53
2017-11-08T02:19:47.731Z,54.97
2017-11-08T02:22:13.834Z,59.00
2017-11-08T02:24:39.862Z,60.93
2017-11-08T02:27:05.995Z,62.23
2017-11-08T02:29:32.034Z,58.77
2017-11-08T02:31:58.071Z,58.03
2017-11-08T02:34:24.135Z,62.80
2017-11-08T02:36:50.174Z,60.47
2017-11-08T02:39:16.281Z,60.13
2017-11-08T02:41:42.373Z,62.70
2017-11-08T02:44:08.439Z,61.63
2017-11-08T02:46:34.521Z,58.13
2017-11-08T02:49:00.576Z,54.20
2017-11-08T02:51:26.697Z,62.20
2017-11-08T02:53:52.775Z,54.50
2017-11-08T02:56:18.860Z,63.37
2017-11-08T02:58:44.962Z,58.20
2017-11-08T03:01:11.075Z,56.50
2017-11-08T03:03:43.218Z,57.57
2017-11-08T03:06:11.082Z,64.37
2017-11-08T03:08:37.166Z,57.47
2017-11-08T03:11:03.314Z,68.43
2017-11-08T03:13:29.391Z,58.20
2017-11-08T03:15:55.482Z,65.80
2017-11-08T03:18:21.530Z,64.23
2017-11-08T03:20:47.625Z,58.10
2017-11-08T03:23:13.722Z,64.83
2017-11-08T03:25:39.818Z,62.87
2017-11-08T03:28:05.896Z,64.63
2017-11-08T03:30:31.988Z,65.87
2017-11-08T03:32:58.119Z,65.23
2017-11-08T03:35:24.166Z,73.27
2017-11-08T03:37:50.279Z,68.33
2017-11-08T03:40:16.489Z,66.03
2017-11-08T03:42:42.551Z,71.93
2017-11-08T03:45:08.599Z,75.00
2017-11-08T03:47:34.672Z,77.23
2017-11-08T03:50:00.818Z,67.40
2017-11-08T03:52:26.852Z,74.70
2017-11-08T03:54:52.983Z,65.40
2017-11-08T03:57:19.098Z,68.80
2017-11-08T03:59:45.078Z,73.63
2017-11-08T04:02:11.157Z,73.70
2017-11-08T04:04:37.245Z,72.67
2017-11-08T04:07:03.323Z,63.47
2017-11-08T04:09:29.443Z,62.40
2017-11-08T04:11:55.519Z,67.03
2017-11-08T04:14:22.198Z,69.87
2017-11-08T04:16:48.718Z,65.10
2017-11-08T04:19:14.786Z,65.77
2017-11-08T04:21:40.819Z,63.67
2017-11-08T04:24:06.943Z,59.03
2017-11-08T04:26:33.044Z,67.97
2017-11-08T04:28:59.170Z,65.57
2017-11-08T04:31:25.266Z,64.03
2017-11-08T04:33:51.456Z,67.80
2017-11-08T04:36:17.571Z,62.73
2017-11-08T04:38:43.681Z,58.40
2017-11-08T04:41:10.030Z,66.47
2017-11-08T04:43:36.062Z,58.77
2017-11-08T04:46:02.107Z,64.03
2017-11-08T04:48:30.259Z,64.77
2017-11-08T04:50:56.343Z,74.20
2017-11-08T04:53:22.686Z,61.47
2017-11-08T04:55:48.813Z,69.53
2017-11-08T04:58:14.927Z,75.00
2017-11-08T05:00:41.071Z,70.63
2017-11-08T05:03:07.292Z,67.97
2017-11-08T05:05:33.399Z,64.57
2017-11-08T05:07:59.557Z,83.17
2017-11-08T05:10:25.618Z,68.10
2017-11-08T05:12:51.701Z,68.17
2017-11-08T05:15:17.845Z,68.93
2017-11-08T05:17:43.921Z,67.67
2017-11-08T05:20:10.205Z,69.67
2017-11-08T05:22:36.744Z,70.23
2017-11-08T05:25:02.790Z,78.50
2017-11-08T05:27:28.868Z,63.80
2017-11-08T05:29:54.919Z,74.70
2017-11-08T05:32:20.995Z,65.40
2017-11-08T05:34:47.075Z,64.90
2017-11-08T05:37:13.370Z,68.03
2017-11-08T05:39:39.438Z,67.40
2017-11-08T05:42:05.530Z,72.93
2017-11-08T05:44:31.743Z,64.13
2017-11-08T05:46:57.839Z,60.20
2017-11-08T05:49:23.972Z,65.50
2017-11-08T05:51:50.457Z,81.03
2017-11-08T05:54:16.551Z,70.57
2017-11-08T05:56:42.659Z,66.23
2017-11-08T05:59:08.770Z,68.37
2017-11-08T06:01:34.847Z,66.57
2017-11-08T06:04:01.040Z,63.77
2017-11-08T06:06:27.116Z,79.33
2017-11-08T06:08:53.149Z,82.47
2017-11-08T06:11:19.207Z,67.30
2017-11-08T06:13:45.287Z,68.20
2017-11-08T06:16:11.723Z,66.93
2017-11-08T06:18:37.821Z,63.47
2017-11-08T06:21:03.906Z,67.60
2017-11-08T06:23:30.011Z,69.43
2017-11-08T06:25:56.124Z,63.20
2017-11-08T06:28:22.565Z,68.67
2017-11-08T06:30:48.675Z,65.50
2017-11-08T06:33:14.755Z,70.13
2017-11-08T06:35:40.787Z,74.83
2017-11-08T06:38:07.742Z,62.83
2017-11-08T06:40:34.235Z,66.47
2017-11-08T06:43:00.254Z,67.90
2017-11-08T06:45:26.350Z,67.27
2017-11-08T06:47:52.447Z,65.30
2017-11-08T06:50:18.563Z,64.20
2017-11-08T06:52:45.006Z,61.80
2017-11-08T06:55:11.111Z,69.37
2017-11-08T06:57:37.195Z,66.60
2017-11-08T07:00:03.208Z,69.40
2017-11-08T07:02:29.359Z,60.60
2017-11-08T07:04:55.814Z,63.30
2017-11-08T07:07:22.232Z,66.83
2017-11-08T07:09:48.317Z,75.47
2017-11-08T07:12:14.823Z,65.83
2017-11-08T07:14:40.914Z,62.40
2017-11-08T07:17:08.779Z,69.23
2017-11-08T07:19:34.955Z,66.97
2017-11-08T07:22:01.021Z,66.30
2017-11-08T07:24:27.499Z,60.03
2017-11-08T07:26:53.593Z,65.57
2017-11-08T07:29:19.678Z,59.57
2017-11-08T07:31:45.691Z,64.27
2017-11-08T07:34:11.758Z,66.63
2017-11-08T07:36:38.242Z,57.93
2017-11-08T07:39:04.346Z,53.60
2017-11-08T07:41:30.430Z,59.87
2017-11-08T07:43:56.506Z,61.33
2017-11-08T07:46:22.657Z,66.43
2017-11-08T07:48:49.066Z,64.67
2017-11-08T07:51:15.099Z,59.90
2017-11-08T07:53:41.185Z,59.50
2017-11-08T07:56:07.654Z,60.10
2017-11-08T07:58:35.738Z,67.30
2017-11-08T08:01:01.798Z,69.63
2017-11-08T08:03:28.301Z,67.33
2017-11-08T08:05:54.398Z,66.80
2017-11-08T08:08:20.546Z,62.37
2017-11-08T08:10:46.979Z,63.83
2017-11-08T08:13:13.054Z,69.13
2017-11-08T08:15:39.116Z,56.40
2017-11-08T08:18:05.572Z,72.40
2017-11-08T08:20:31.615Z,61.60
2017-11-08T08:22:57.668Z,58.20
2017-11-08T08:25:23.774Z,56.97
2017-11-08T08:27:49.889Z,63.70
2017-11-08T08:30:16.306Z,64.03
2017-11-08T08:32:42.391Z,60.80
2017-11-08T08:35:08.477Z,70.53
2017-11-08T08:37:35.002Z,56.73
2017-11-08T08:40:01.094Z,58.10
2017-11-08T08:42:27.139Z,57.40
2017-11-08T08:44:53.290Z,62.37
2017-11-08T08:47:19.391Z,74.33
2017-11-08T08:49:45.767Z,70.37
2017-11-08T08:52:11.778Z,63.10
2017-11-08T08:54:37.815Z,68.97
2017-11-08T08:57:04.330Z,72.67
2017-11-08T08:59:30.427Z,62.00
2017-11-08T09:01:56.499Z,58.07
2017-11-08T09:04:22.602Z,59.07
2017-11-08T09:06:48.670Z,61.73
2017-11-08T09:09:15.174Z,57.80
2017-11-08T09:11:41.245Z,63.10
2017-11-08T09:14:07.362Z,60.80
2017-11-08T09:16:33.452Z,60.00
2017-11-08T09:18:59.470Z,52.93
2017-11-08T09:21:25.908Z,50.30
2017-11-08T09:23:51.954Z,64.10
2017-11-08T09:26:20.983Z,52.07
2017-11-08T09:28:47.489Z,55.57
2017-11-08T09:31:19.648Z,51.17
2017-11-08T09:33:45.770Z,55.70
2017-11-08T09:36:14.774Z,54.90
2017-11-08T09:38:40.867Z,63.67
2017-11-08T09:41:06.984Z,53.17
2017-11-08T09:43:33.119Z,64.87
2017-11-08T09:46:00.513Z,56.87
2017-11-08T09:48:26.618Z,60.30
2017-11-08T09:50:52.666Z,58.40
2017-11-08T09:53:18.762Z,59.80
2017-11-08T09:55:51.947Z,68.40
2017-11-08T09:58:18.441Z,60.47
2017-11-08T10:00:51.001Z,56.70
2017-11-08T10:03:19.362Z,57.80
2017-11-08T10:05:45.395Z,61.10
2017-11-08T10:08:11.472Z,60.40
2017-11-08T10:10:38.658Z,62.17
2017-11-08T10:13:09.760Z,58.90
2017-11-08T10:15:36.243Z,56.03
2017-11-08T10:18:02.359Z,58.97
2017-11-08T10:20:28.512Z,58.63
2017-11-08T10:23:00.499Z,58.10
2017-11-08T10:25:26.562Z,61.67
2017-11-08T10:27:56.003Z,56.10
2017-11-08T10:30:22.089Z,53.47
2017-11-08T10:32:48.198Z,50.83
2017-11-08T10:35:14.609Z,58.90
2017-11-08T10:37:40.722Z,53.67
2017-11-08T10:40:06.831Z,50.10
2017-11-08T10:42:32.962Z,57.30
2017-11-08T10:44:59.056Z,50.70
2017-11-08T10:47:25.527Z,55.23
2017-11-08T10:49:54.632Z,50.80
2017-11-08T10:52:20.800Z,49.03
2017-11-08T10:54:47.217Z,49.10
2017-11-08T10:57:13.364Z,43.93
2017-11-08T10:59:45.581Z,49.50
2017-11-08T11:02:11.975Z,51.27
2017-11-08T11:04:38.028Z,48.33
2017-11-08T11:07:04.122Z,46.43
2017-11-08T11:09:30.603Z,50.77
2017-11-08T11:11:56.657Z,47.50
2017-11-08T11:14:22.767Z,48.47
2017-11-08T11:16:49.276Z,51.13
2017-11-08T11:19:20.163Z,45.53
2017-11-08T11:21:48.002Z,51.73
2017-11-08T11:24:14.382Z,44.30
2017-11-08T11:26:41.391Z,49.87
2017-11-08T11:29:07.455Z,49.10
2017-11-08T11:31:33.957Z,50.10
2017-11-08T11:34:00.009Z,45.97
2017-11-08T11:36:26.039Z,49.13
2017-11-08T11:38:54.366Z,47.03
2017-11-08T11:41:22.410Z,46.67
2017-11-08T11:43:48.448Z,45.53
2017-11-08T11:46:14.526Z,48.83
2017-11-08T11:48:47.271Z,45.73
2017-11-08T11:51:13.816Z,53.40
2017-11-08T11:53:39.856Z,45.03
2017-11-08T11:56:05.889Z,46.80
2017-11-08T11:58:31.955Z,52.37
2017-11-08T12:00:58.059Z,45.37
2017-11-08T12:03:24.457Z,54.17
2017-11-08T12:05:50.531Z,45.10
2017-11-08T12:08:16.610Z,49.50
2017-11-08T12:10:42.696Z,52.07
2017-11-08T12:13:08.759Z,52.17
2017-11-08T12:15:35.320Z,53.13
2017-11-08T12:18:01.387Z,52.40
2017-11-08T12:20:28.512Z,50.47
2017-11-08T12:22:54.630Z,50.20
2017-11-08T12:25:20.703Z,41.07
2017-11-08T12:27:46.803Z,44.57
2017-11-08T12:30:12.960Z,50.10
2017-11-08T12:32:39.424Z,53.87
2017-11-08T12:35:05.740Z,52.00
2017-11-08T12:37:31.819Z,55.20
2017-11-08T12:39:57.982Z,50.77
2017-11-08T12:42:24.024Z,45.13
2017-11-08T12:44:56.428Z,48.43
2017-11-08T12:47:22.465Z,45.83
2017-11-08T12:49:48.595Z,53.70
2017-11-08T12:52:14.715Z,50.30
2017-11-08T12:54:40.779Z,45.07
2017-11-08T12:57:06.883Z,45.30
2017-11-08T12:59:33.380Z,50.33
2017-11-08T13:01:59.511Z,48.43
2017-11-08T13:04:25.540Z,46.37
2017-11-08T13:06:51.988Z,38.83
2017-11-08T13:09:18.022Z,55.33
2017-11-08T13:11:44.072Z,42.33
2017-11-08T13:14:10.584Z,50.10
2017-11-08T13:16:36.674Z,38.50
2017-11-08T13:19:02.740Z,44.90
2017-11-08T13:21:29.198Z,44.17
2017-11-08T13:23:55.409Z,48.10
2017-11-08T13:26:21.466Z,50.23
2017-11-08T13:28:48.048Z,46.97
2017-11-08T13:31:14.160Z,47.30
2017-11-08T13:33:40.171Z,43.93
2017-11-08T13:36:06.535Z,44.20
2017-11-08T13:38:32.536Z,52.57
2017-11-08T13:40:58.598Z,41.50
2017-11-08T13:43:24.743Z,45.27
2017-11-08T13:45:50.863Z,46.20
2017-11-08T13:48:17.372Z,45.87
2017-11-08T13:50:43.459Z,47.53
2017-11-08T13:53:09.628Z,44.97
2017-11-08T13:55:36.176Z,44.03
2017-11-08T13:58:02.301Z,43.17
2017-11-08T14:00:28.328Z,56.17
2017-11-08T14:02:54.866Z,43.67
2017-11-08T14:05:20.995Z,43.50
2017-11-08T14:07:47.120Z,49.97
2017-11-08T14:10:13.547Z,40.43
2017-11-08T14:12:39.637Z,47.10
2017-11-08T14:15:05.719Z,44.20
2017-11-08T14:17:32.107Z,48.50
2017-11-08T14:19:58.198Z,44.80
2017-11-08T14:22:24.279Z,46.27
2017-11-08T14:24:50.387Z,46.80
2017-11-08T14:27:16.458Z,42.07
2017-11-08T14:29:42.566Z,41.47
2017-11-08T14:32:11.700Z,49.67
2017-11-08T14:34:37.728Z,45.43
2017-11-08T14:37:03.812Z,42.57
2017-11-08T14:39:29.919Z,50.03
2017-11-08T14:41:57.797Z,43.87
2017-11-08T14:44:23.868Z,42.33
2017-11-08T14:46:49.993Z,40.83
2017-11-08T14:49:16.080Z,38.53
2017-11-08T14:51:42.147Z,37.40
2017-11-08T14:54:08.649Z,37.13
2017-11-08T14:56:34.727Z,38.33
2017-11-08T14:59:00.810Z,47.00
2017-11-08T15:01:27.197Z,46.23
2017-11-08T15:03:53.266Z,40.93
2017-11-08T15:06:19.391Z,40.77
2017-11-08T15:08:45.846Z,36.50
2017-11-08T15:11:14.818Z,36.13
2017-11-08T15:13:40.707Z,32.77
2017-11-08T15:16:07.192Z,35.77
2017-11-08T15:18:33.287Z,30.30
2017-11-08T15:20:59.325Z,35.03
2017-11-08T15:23:28.403Z,37.93
2017-11-08T15:25:54.467Z,35.70
2017-11-08T15:28:20.598Z,33.67
2017-11-08T15:36:27.859Z,39.90
2017-11-08T15:38:53.942Z,40.33
2017-11-08T15:41:19.992Z,43.70
2017-11-08T15:43:46.093Z,43.40
2017-11-08T15:46:13.119Z,35.40
2017-11-08T15:48:39.588Z,32.13
2017-11-08T15:51:05.663Z,37.47
2017-11-08T15:53:31.748Z,29.90
2017-11-08T15:55:57.863Z,33.93
2017-11-08T15:58:23.948Z,36.20
2017-11-08T16:00:50.451Z,35.87
2017-11-08T16:03:16.578Z,36.03
2017-11-08T16:05:42.675Z,34.03
2017-11-08T16:08:08.772Z,37.27
2017-11-08T16:10:34.852Z,33.90
2017-11-08T16:13:01.388Z,32.27
2017-11-08T16:15:27.415Z,37.00
2017-11-08T16:17:53.587Z,38.20
2017-11-08T16:20:19.703Z,39.13
2017-11-08T16:22:45.813Z,33.03
2017-11-08T16:25:12.333Z,33.30
2017-11-08T16:27:38.423Z,33.63
2017-11-08T16:30:04.539Z,33.03
2017-11-08T16:32:30.644Z,36.73
2017-11-08T16:34:56.762Z,36.47
2017-11-08T16:37:23.288Z,31.77
2017-11-08T16:39:49.359Z,40.37
2017-11-08T16:42:15.448Z,38.17
2017-11-08T16:44:41.608Z,43.80
2017-11-08T16:47:07.806Z,38.67
2017-11-08T16:49:34.316Z,36.60
2017-11-08T16:52:00.472Z,43.10
2017-11-08T16:54:26.574Z,36.53
2017-11-08T16:56:52.683Z,43.57
2017-11-08T16:59:18.769Z,44.10
2017-11-08T17:01:45.395Z,43.27
2017-11-08T17:04:11.562Z,40.20
2017-11-08T17:06:37.714Z,46.70
2017-11-08T17:09:03.795Z,44.73
2017-11-08T17:11:29.871Z,42.40
2017-11-08T17:13:56.293Z,43.03
2017-11-08T17:16:22.368Z,42.33
2017-11-08T17:18:48.527Z,44.90
2017-11-08T17:21:14.904Z,50.53
2017-11-08T17:23:41.043Z,52.17
2017-11-08T17:26:07.167Z,48.20
2017-11-08T17:28:33.715Z,45.00
2017-11-08T17:30:59.779Z,50.13
2017-11-08T17:33:25.883Z,48.33
2017-11-08T17:35:52.303Z,53.10
2017-11-08T17:38:18.371Z,53.23
2017-11-08T17:40:44.505Z,57.60
2017-11-08T17:43:10.649Z,56.00
2017-11-08T17:45:36.800Z,140.43
2017-11-08T17:48:03.209Z,88.40
2017-11-08T17:50:29.275Z,72.47
2017-11-08T17:52:55.413Z,53.70
2017-11-08T17:55:21.924Z,58.80
2017-11-08T17:57:47.986Z,50.07
2017-11-08T18:00:14.139Z,53.73
2017-11-08T18:02:40.715Z,59.53
2017-11-08T18:05:06.852Z,49.97
2017-11-08T18:07:32.948Z,50.80
2017-11-08T18:09:59.412Z,48.17
2017-11-08T18:12:25.517Z,46.43
2017-11-08T18:14:51.657Z,51.50
2017-11-08T18:17:18.202Z,46.60
2017-11-08T18:19:44.326Z,51.53
2017-11-08T18:22:10.434Z,44.77
2017-11-08T18:24:36.915Z,44.10
2017-11-08T18:27:03.064Z,41.40
2017-11-08T18:29:29.185Z,52.60
2017-11-08T18:31:55.608Z,51.23
2017-11-08T18:34:21.704Z,54.13
2017-11-08T18:36:47.874Z,48.10
2017-11-08T18:39:14.359Z,47.07
2017-11-08T18:41:40.446Z,55.47
2017-11-08T18:44:06.582Z,42.97
2017-11-08T18:46:32.709Z,42.77
2017-11-08T18:48:58.834Z,46.93
2017-11-08T18:51:25.370Z,49.13
2017-11-08T18:53:51.488Z,44.23
2017-11-08T18:56:17.714Z,51.30
2017-11-08T18:58:43.873Z,48.87
2017-11-08T19:01:10.048Z,48.37
2017-11-08T19:03:36.598Z,48.87
2017-11-08T19:06:02.743Z,42.20
2017-11-08T19:08:28.903Z,48.40
2017-11-08T19:10:55.422Z,46.73
2017-11-08T19:13:21.496Z,45.77
2017-11-08T19:15:47.668Z,46.23
2017-11-08T19:18:14.284Z,44.07
2017-11-08T19:20:40.457Z,49.33
2017-11-08T19:23:06.664Z,48.90
2017-11-08T19:25:33.207Z,39.63
2017-11-08T19:27:59.438Z,44.03
2017-11-08T19:30:25.730Z,41.43
2017-11-08T19:32:52.259Z,36.50
2017-11-08T19:35:18.517Z,38.77
2017-11-08T19:37:44.815Z,46.70
2017-11-08T19:40:11.424Z,38.53
2017-11-08T19:42:37.724Z,43.13
2017-11-08T19:45:04.007Z,35.80
2017-11-08T19:47:30.608Z,37.10
2017-11-08T19:49:57.334Z,37.77
2017-11-08T19:52:24.397Z,36.47
2017-11-08T19:54:51.041Z,34.27
2017-11-08T19:57:17.999Z,34.53
2017-11-08T19:59:44.286Z,39.93
2017-11-08T20:02:11.004Z,41.57
2017-11-08T20:04:37.288Z,35.17
2017-11-08T20:07:03.555Z,37.50
2017-11-08T20:09:30.264Z,49.67
2017-11-08T20:11:56.561Z,41.07
2017-11-08T20:14:22.898Z,34.87
2017-11-08T20:16:49.573Z,36.33
2017-11-08T20:19:15.913Z,33.90
2017-11-08T20:21:42.149Z,34.70
2017-11-08T20:24:08.782Z,40.90
2017-11-08T20:26:35.123Z,36.17
2017-11-08T20:29:01.427Z,36.43
2017-11-08T20:31:28.097Z,37.63
2017-11-08T20:33:54.389Z,40.90
2017-11-08T20:36:20.661Z,45.47
2017-11-08T20:38:47.250Z,49.37
2017-11-08T20:41:13.539Z,51.97
2017-11-08T20:43:39.839Z,50.07
2017-11-08T20:46:06.553Z,54.93
2017-11-08T20:48:32.777Z,49.03
2017-11-08T20:50:58.913Z,47.40
2017-11-08T20:53:25.582Z,60.80
2017-11-08T20:55:51.806Z,52.87
2017-11-08T20:58:18.008Z,53.63
2017-11-08T21:00:44.231Z,42.60
2017-11-08T21:03:11.270Z,38.07
2017-11-08T21:05:37.823Z,44.70
2017-11-08T21:08:03.962Z,45.50
2017-11-08T21:10:30.168Z,44.80
2017-11-08T21:12:56.312Z,38.90
2017-11-08T21:15:22.455Z,37.30
2017-11-08T21:17:48.979Z,39.90
2017-11-08T21:20:15.107Z,40.27
2017-11-08T21:22:41.217Z,40.00
2017-11-08T21:25:07.653Z,48.87
2017-11-08T21:27:33.764Z,44.87
2017-11-08T21:29:59.956Z,45.30
2017-11-08T21:32:26.448Z,43.07
2017-11-08T21:34:52.560Z,43.60
2017-11-08T21:37:18.651Z,40.97
2017-11-08T21:39:45.133Z,47.03
2017-11-08T21:42:11.240Z,47.30
2017-11-08T21:44:37.449Z,43.00
2017-11-08T21:47:03.552Z,40.10
2017-11-08T21:49:29.656Z,49.73
2017-11-08T21:51:56.161Z,49.30
2017-11-08T21:54:22.399Z,42.93
2017-11-08T21:56:48.445Z,44.40
2017-11-08T21:59:14.955Z,43.20
2017-11-08T22:01:41.050Z,40.53
2017-11-08T22:04:07.075Z,41.90
2017-11-08T22:06:33.399Z,44.40
2017-11-08T22:08:59.469Z,41.43
2017-11-08T22:11:25.649Z,46.00
2017-11-08T22:13:51.756Z,49.50
2017-11-08T22:16:17.836Z,42.67
2017-11-08T22:18:44.280Z,46.27
2017-11-08T22:21:10.365Z,48.97
2017-11-08T22:23:36.425Z,43.30
2017-11-08T22:26:02.884Z,46.30
2017-11-08T22:28:28.965Z,50.23
2017-11-08T22:30:55.048Z,47.00
2017-11-08T22:33:21.152Z,43.67
2017-11-08T22:35:47.246Z,39.47
2017-11-08T22:38:13.684Z,44.30
2017-11-08T22:40:39.846Z,43.27
2017-11-08T22:43:05.908Z,37.30
2017-11-08T22:45:32.057Z,36.47
2017-11-08T22:47:58.097Z,39.60
2017-11-08T22:50:24.547Z,39.57
2017-11-08T22:52:50.619Z,40.10
2017-11-08T22:55:16.680Z,43.83
2017-11-08T22:57:43.192Z,44.07
2017-11-08T23:00:09.316Z,35.50
2017-11-08T23:02:35.397Z,40.07
2017-11-08T23:05:01.503Z,48.97
2017-11-08T23:07:27.608Z,41.10
2017-11-08T23:09:54.015Z,38.67
2017-11-08T23:12:20.100Z,42.30
2017-11-08T23:14:46.194Z,40.33
2017-11-08T23:17:12.313Z,40.83
2017-11-08T23:19:38.420Z,41.97
2017-11-08T23:22:04.880Z,38.50
2017-11-08T23:24:30.988Z,42.17
2017-11-08T23:26:57.126Z,47.20
2017-11-08T23:29:23.239Z,41.57
2017-11-08T23:31:49.338Z,36.70
2017-11-08T23:34:15.797Z,40.90
2017-11-08T23:36:41.902Z,39.33
2017-11-08T23:39:07.963Z,33.73
2017-11-08T23:41:34.332Z,38.43
2017-11-08T23:44:00.392Z,36.13
2017-11-08T23:46:26.503Z,39.23
2017-11-08T23:48:52.628Z,40.20
2017-11-08T23:51:18.675Z,39.33
2017-11-08T23:53:45.111Z,37.83
2017-11-08T23:56:11.230Z,39.83
2017-11-08T23:58:37.329Z,41.80
